sensor_id;sensor_type;location;lat;lon;timestamp;pressure;altitude;pressure_sealevel;temperature;humidity
28701;BME280;15877;52.344;16.790;2023-07-22T00:02:31;100111.23;;;20.52;64.06
28701;BME280;15877;52.344;16.790;2023-07-22T00:05:04;100108.20;;;20.51;64.23
28701;BME280;15877;52.344;16.790;2023-07-22T00:07:36;100108.30;;;20.48;63.90
28701;BME280;15877;52.344;16.790;2023-07-22T00:10:10;100107.23;;;20.45;63.58
28701;BME280;15877;52.344;16.790;2023-07-22T00:12:42;100103.48;;;20.43;64.07
28701;BME280;15877;52.344;16.790;2023-07-22T00:15:14;100108.05;;;20.44;64.21
28701;BME280;15877;52.344;16.790;2023-07-22T00:17:46;100107.84;;;20.43;64.16
28701;BME280;15877;52.344;16.790;2023-07-22T00:20:20;100094.61;;;20.33;64.26
28701;BME280;15877;52.344;16.790;2023-07-22T00:22:53;100096.89;;;20.31;64.37
28701;BME280;15877;52.344;16.790;2023-07-22T00:25:26;100095.55;;;20.27;64.22
28701;BME280;15877;52.344;16.790;2023-07-22T00:27:59;100106.34;;;20.31;63.94
28701;BME280;15877;52.344;16.790;2023-07-22T00:30:31;100105.47;;;20.27;63.83
28701;BME280;15877;52.344;16.790;2023-07-22T00:33:04;100107.23;;;20.24;63.94
28701;BME280;15877;52.344;16.790;2023-07-22T00:35:37;100109.17;;;20.20;64.18
28701;BME280;15877;52.344;16.790;2023-07-22T00:38:09;100099.52;;;20.08;64.48
28701;BME280;15877;52.344;16.790;2023-07-22T00:40:42;100112.10;;;20.14;64.35
28701;BME280;15877;52.344;16.790;2023-07-22T00:43:14;100116.61;;;20.11;64.71
28701;BME280;15877;52.344;16.790;2023-07-22T00:45:47;100121.18;;;20.00;64.77
28701;BME280;15877;52.344;16.790;2023-07-22T00:48:20;100112.08;;;20.00;64.68
28701;BME280;15877;52.344;16.790;2023-07-22T00:50:53;100119.12;;;19.99;64.42
28701;BME280;15877;52.344;16.790;2023-07-22T00:53:26;100120.10;;;19.94;64.39
28701;BME280;15877;52.344;16.790;2023-07-22T00:55:59;100113.34;;;19.86;64.22
28701;BME280;15877;52.344;16.790;2023-07-22T00:58:32;100103.27;;;19.83;64.31
28701;BME280;15877;52.344;16.790;2023-07-22T01:01:05;100111.47;;;19.84;64.43
28701;BME280;15877;52.344;16.790;2023-07-22T01:03:38;100108.60;;;19.82;64.37
28701;BME280;15877;52.344;16.790;2023-07-22T01:06:10;100115.33;;;19.80;64.67
28701;BME280;15877;52.344;16.790;2023-07-22T01:08:43;100118.80;;;19.80;64.54
28701;BME280;15877;52.344;16.790;2023-07-22T01:11:16;100118.80;;;19.79;64.80
28701;BME280;15877;52.344;16.790;2023-07-22T01:13:51;100112.87;;;19.74;64.62
28701;BME280;15877;52.344;16.790;2023-07-22T01:16:29;100114.96;;;19.74;64.85
28701;BME280;15877;52.344;16.790;2023-07-22T01:19:02;100117.28;;;19.75;64.87
28701;BME280;15877;52.344;16.790;2023-07-22T01:21:36;100120.61;;;19.70;64.79
28701;BME280;15877;52.344;16.790;2023-07-22T01:24:08;100121.56;;;19.66;64.95
28701;BME280;15877;52.344;16.790;2023-07-22T01:26:42;100118.98;;;19.66;64.96
28701;BME280;15877;52.344;16.790;2023-07-22T01:29:14;100123.27;;;19.66;64.91
28701;BME280;15877;52.344;16.790;2023-07-22T01:31:49;100123.20;;;19.61;65.13
28701;BME280;15877;52.344;16.790;2023-07-22T01:34:22;100123.38;;;19.57;65.37
28701;BME280;15877;52.344;16.790;2023-07-22T01:36:56;100119.94;;;19.55;65.35
28701;BME280;15877;52.344;16.790;2023-07-22T01:39:28;100116.12;;;19.53;65.36
28701;BME280;15877;52.344;16.790;2023-07-22T01:42:01;100120.15;;;19.48;65.12
28701;BME280;15877;52.344;16.790;2023-07-22T01:44:33;100123.98;;;19.46;65.39
28701;BME280;15877;52.344;16.790;2023-07-22T01:47:06;100124.77;;;19.41;65.50
28701;BME280;15877;52.344;16.790;2023-07-22T01:49:38;100122.95;;;19.36;65.67
28701;BME280;15877;52.344;16.790;2023-07-22T01:52:10;100126.38;;;19.33;64.96
28701;BME280;15877;52.344;16.790;2023-07-22T01:54:42;100122.18;;;19.29;65.11
28701;BME280;15877;52.344;16.790;2023-07-22T01:57:16;100124.23;;;19.26;65.55
28701;BME280;15877;52.344;16.790;2023-07-22T01:59:48;100120.83;;;19.23;65.64
28701;BME280;15877;52.344;16.790;2023-07-22T02:02:21;100118.86;;;19.20;65.28
28701;BME280;15877;52.344;16.790;2023-07-22T02:04:53;100128.48;;;19.17;65.76
28701;BME280;15877;52.344;16.790;2023-07-22T02:07:26;100126.23;;;19.13;65.51
28701;BME280;15877;52.344;16.790;2023-07-22T02:09:59;100128.46;;;19.10;65.56
28701;BME280;15877;52.344;16.790;2023-07-22T02:12:32;100120.08;;;19.07;66.01
28701;BME280;15877;52.344;16.790;2023-07-22T02:15:06;100120.84;;;19.03;66.10
28701;BME280;15877;52.344;16.790;2023-07-22T02:17:38;100119.38;;;19.05;65.98
28701;BME280;15877;52.344;16.790;2023-07-22T02:20:11;100119.55;;;19.04;66.14
28701;BME280;15877;52.344;16.790;2023-07-22T02:22:43;100120.96;;;19.02;66.08
28701;BME280;15877;52.344;16.790;2023-07-22T02:25:16;100117.14;;;18.99;66.00
28701;BME280;15877;52.344;16.790;2023-07-22T02:27:49;100104.50;;;18.91;65.74
28701;BME280;15877;52.344;16.790;2023-07-22T02:30:21;100117.54;;;18.96;65.50
28701;BME280;15877;52.344;16.790;2023-07-22T02:32:54;100117.91;;;18.92;65.71
28701;BME280;15877;52.344;16.790;2023-07-22T02:35:27;100109.00;;;18.82;65.86
28701;BME280;15877;52.344;16.790;2023-07-22T02:37:59;100125.39;;;18.88;65.85
28701;BME280;15877;52.344;16.790;2023-07-22T02:40:35;100125.02;;;18.86;65.75
28701;BME280;15877;52.344;16.790;2023-07-22T02:43:08;100128.04;;;18.83;65.44
28701;BME280;15877;52.344;16.790;2023-07-22T02:45:41;100121.57;;;18.80;65.96
28701;BME280;15877;52.344;16.790;2023-07-22T02:48:13;100115.61;;;18.70;66.25
28701;BME280;15877;52.344;16.790;2023-07-22T02:50:46;100121.94;;;18.78;66.01
28701;BME280;15877;52.344;16.790;2023-07-22T02:53:21;100119.23;;;18.76;65.82
28701;BME280;15877;52.344;16.790;2023-07-22T02:55:54;100124.00;;;18.75;65.85
28701;BME280;15877;52.344;16.790;2023-07-22T02:58:27;100123.60;;;18.74;65.28
28701;BME280;15877;52.344;16.790;2023-07-22T03:01:00;100124.91;;;18.73;65.25
28701;BME280;15877;52.344;16.790;2023-07-22T03:03:40;100125.79;;;18.73;64.93
28701;BME280;15877;52.344;16.790;2023-07-22T03:06:13;100127.30;;;18.69;64.70
28701;BME280;15877;52.344;16.790;2023-07-22T03:08:46;100132.41;;;18.65;65.22
28701;BME280;15877;52.344;16.790;2023-07-22T03:11:19;100122.87;;;18.54;65.12
28701;BME280;15877;52.344;16.790;2023-07-22T03:13:53;100138.24;;;18.58;65.38
28701;BME280;15877;52.344;16.790;2023-07-22T03:16:25;100142.45;;;18.56;65.22
28701;BME280;15877;52.344;16.790;2023-07-22T03:18:59;100138.97;;;18.53;65.79
28701;BME280;15877;52.344;16.790;2023-07-22T03:21:31;100146.33;;;18.50;65.96
28701;BME280;15877;52.344;16.790;2023-07-22T03:24:04;100147.50;;;18.47;66.01
28701;BME280;15877;52.344;16.790;2023-07-22T03:26:37;100146.96;;;18.44;65.87
28701;BME280;15877;52.344;16.790;2023-07-22T03:29:10;100149.96;;;18.43;66.20
28701;BME280;15877;52.344;16.790;2023-07-22T03:31:42;100150.86;;;18.42;66.21
28701;BME280;15877;52.344;16.790;2023-07-22T03:34:15;100149.10;;;18.41;66.01
28701;BME280;15877;52.344;16.790;2023-07-22T03:36:47;100151.28;;;18.40;65.97
28701;BME280;15877;52.344;16.790;2023-07-22T03:39:20;100143.84;;;18.37;66.81
28701;BME280;15877;52.344;16.790;2023-07-22T03:41:52;100144.39;;;18.37;66.78
28701;BME280;15877;52.344;16.790;2023-07-22T03:44:24;100147.77;;;18.37;67.06
28701;BME280;15877;52.344;16.790;2023-07-22T03:46:57;100147.70;;;18.36;67.54
28701;BME280;15877;52.344;16.790;2023-07-22T03:49:29;100146.24;;;18.37;67.93
28701;BME280;15877;52.344;16.790;2023-07-22T03:52:02;100148.14;;;18.34;68.64
28701;BME280;15877;52.344;16.790;2023-07-22T03:54:34;100150.54;;;18.35;68.39
28701;BME280;15877;52.344;16.790;2023-07-22T03:57:07;100153.15;;;18.37;68.42
28701;BME280;15877;52.344;16.790;2023-07-22T03:59:41;100155.70;;;18.39;68.85
28701;BME280;15877;52.344;16.790;2023-07-22T04:02:14;100158.83;;;18.39;69.43
28701;BME280;15877;52.344;16.790;2023-07-22T04:04:47;100142.69;;;18.34;69.71
28701;BME280;15877;52.344;16.790;2023-07-22T04:07:19;100156.42;;;18.39;70.53
28701;BME280;15877;52.344;16.790;2023-07-22T04:09:52;100156.48;;;18.42;71.05
28701;BME280;15877;52.344;16.790;2023-07-22T04:12:24;100141.03;;;18.37;71.36
28701;BME280;15877;52.344;16.790;2023-07-22T04:14:57;100152.02;;;18.46;71.88
28701;BME280;15877;52.344;16.790;2023-07-22T04:17:34;100149.69;;;18.51;71.58
28701;BME280;15877;52.344;16.790;2023-07-22T04:20:08;100154.38;;;18.49;72.34
28701;BME280;15877;52.344;16.790;2023-07-22T04:22:41;100157.34;;;18.50;72.27
28701;BME280;15877;52.344;16.790;2023-07-22T04:25:14;100163.83;;;18.52;72.40
28701;BME280;15877;52.344;16.790;2023-07-22T04:27:48;100161.03;;;18.56;72.30
28701;BME280;15877;52.344;16.790;2023-07-22T04:30:20;100164.11;;;18.60;72.50
28701;BME280;15877;52.344;16.790;2023-07-22T04:32:54;100160.98;;;18.53;73.39
28701;BME280;15877;52.344;16.790;2023-07-22T04:35:26;100162.69;;;18.63;72.61
28701;BME280;15877;52.344;16.790;2023-07-22T04:38:00;100164.18;;;18.70;72.51
28701;BME280;15877;52.344;16.790;2023-07-22T04:40:33;100166.98;;;18.70;72.90
28701;BME280;15877;52.344;16.790;2023-07-22T04:43:07;100173.42;;;18.76;72.72
28701;BME280;15877;52.344;16.790;2023-07-22T04:45:40;100172.02;;;18.78;72.69
28701;BME280;15877;52.344;16.790;2023-07-22T04:48:12;100169.18;;;18.75;73.41
28701;BME280;15877;52.344;16.790;2023-07-22T04:50:46;100166.65;;;18.82;72.78
28701;BME280;15877;52.344;16.790;2023-07-22T04:53:19;100168.12;;;18.81;73.04
28701;BME280;15877;52.344;16.790;2023-07-22T04:55:51;100168.25;;;18.88;72.70
28701;BME280;15877;52.344;16.790;2023-07-22T04:58:23;100165.58;;;18.94;72.89
28701;BME280;15877;52.344;16.790;2023-07-22T05:00:57;100166.66;;;18.87;73.01
28701;BME280;15877;52.344;16.790;2023-07-22T05:03:34;100170.24;;;18.94;72.44
28701;BME280;15877;52.344;16.790;2023-07-22T05:06:06;100172.04;;;18.97;72.14
28701;BME280;15877;52.344;16.790;2023-07-22T05:08:39;100171.00;;;18.97;72.09
28701;BME280;15877;52.344;16.790;2023-07-22T05:11:13;100172.31;;;18.95;72.50
28701;BME280;15877;52.344;16.790;2023-07-22T05:13:45;100177.29;;;19.06;71.69
28701;BME280;15877;52.344;16.790;2023-07-22T05:16:21;100184.95;;;19.14;71.60
28701;BME280;15877;52.344;16.790;2023-07-22T05:18:54;100181.69;;;19.12;71.84
28701;BME280;15877;52.344;16.790;2023-07-22T05:21:27;100175.95;;;19.10;71.60
28701;BME280;15877;52.344;16.790;2023-07-22T05:23:59;100187.95;;;19.12;71.86
28701;BME280;15877;52.344;16.790;2023-07-22T05:26:35;100188.89;;;19.19;71.80
28701;BME280;15877;52.344;16.790;2023-07-22T05:29:07;100189.02;;;19.26;71.04
28701;BME280;15877;52.344;16.790;2023-07-22T05:31:41;100193.30;;;19.31;71.16
28701;BME280;15877;52.344;16.790;2023-07-22T05:34:13;100196.32;;;19.28;71.12
28701;BME280;15877;52.344;16.790;2023-07-22T05:36:48;100199.03;;;19.35;70.73
28701;BME280;15877;52.344;16.790;2023-07-22T05:39:38;100197.19;;;19.34;70.56
28701;BME280;15877;52.344;16.790;2023-07-22T05:42:11;100198.56;;;19.28;70.29
28701;BME280;15877;52.344;16.790;2023-07-22T05:44:45;100211.73;;;19.31;70.40
28701;BME280;15877;52.344;16.790;2023-07-22T05:47:17;100209.11;;;19.33;69.80
28701;BME280;15877;52.344;16.790;2023-07-22T05:49:49;100211.64;;;19.25;70.04
28701;BME280;15877;52.344;16.790;2023-07-22T05:52:22;100217.16;;;19.12;70.52
28701;BME280;15877;52.344;16.790;2023-07-22T05:54:55;100220.70;;;19.17;70.45
28701;BME280;15877;52.344;16.790;2023-07-22T05:57:31;100224.02;;;19.15;70.41
28701;BME280;15877;52.344;16.790;2023-07-22T06:00:07;100218.42;;;19.24;70.18
28701;BME280;15877;52.344;16.790;2023-07-22T06:02:44;100218.70;;;19.32;70.27
28701;BME280;15877;52.344;16.790;2023-07-22T06:05:17;100222.27;;;19.31;69.68
28701;BME280;15877;52.344;16.790;2023-07-22T06:07:49;100224.34;;;19.56;68.88
28701;BME280;15877;52.344;16.790;2023-07-22T06:10:22;100224.23;;;19.53;68.74
28701;BME280;15877;52.344;16.790;2023-07-22T06:12:54;100224.99;;;19.51;69.01
28701;BME280;15877;52.344;16.790;2023-07-22T06:15:26;100225.01;;;19.36;69.25
28701;BME280;15877;52.344;16.790;2023-07-22T06:18:16;100232.86;;;19.48;69.35
28701;BME280;15877;52.344;16.790;2023-07-22T06:20:50;100238.13;;;19.46;69.36
28701;BME280;15877;52.344;16.790;2023-07-22T06:23:22;100244.02;;;19.59;68.59
28701;BME280;15877;52.344;16.790;2023-07-22T06:25:54;100241.58;;;19.74;67.92
28701;BME280;15877;52.344;16.790;2023-07-22T06:28:26;100241.94;;;19.80;67.99
28701;BME280;15877;52.344;16.790;2023-07-22T06:30:59;100239.55;;;19.70;68.36
28701;BME280;15877;52.344;16.790;2023-07-22T06:33:32;100237.48;;;19.78;68.40
28701;BME280;15877;52.344;16.790;2023-07-22T06:36:05;100238.23;;;19.80;68.00
28701;BME280;15877;52.344;16.790;2023-07-22T06:38:37;100236.13;;;19.81;67.82
28701;BME280;15877;52.344;16.790;2023-07-22T06:41:09;100240.29;;;19.78;68.34
28701;BME280;15877;52.344;16.790;2023-07-22T06:43:42;100238.54;;;19.73;68.21
28701;BME280;15877;52.344;16.790;2023-07-22T06:46:15;100243.99;;;19.60;68.50
28701;BME280;15877;52.344;16.790;2023-07-22T06:48:47;100246.12;;;19.84;68.21
28701;BME280;15877;52.344;16.790;2023-07-22T06:51:19;100247.98;;;19.97;68.02
28701;BME280;15877;52.344;16.790;2023-07-22T06:53:51;100248.84;;;20.11;66.85
28701;BME280;15877;52.344;16.790;2023-07-22T06:56:24;100247.66;;;20.22;66.50
28701;BME280;15877;52.344;16.790;2023-07-22T06:58:57;100247.67;;;20.18;66.56
28701;BME280;15877;52.344;16.790;2023-07-22T07:01:30;100250.56;;;20.26;66.12
28701;BME280;15877;52.344;16.790;2023-07-22T07:04:02;100243.77;;;20.14;65.58
28701;BME280;15877;52.344;16.790;2023-07-22T07:06:35;100262.49;;;20.34;64.69
28701;BME280;15877;52.344;16.790;2023-07-22T07:09:09;100265.10;;;20.41;64.06
28701;BME280;15877;52.344;16.790;2023-07-22T07:11:42;100269.79;;;20.36;63.77
28701;BME280;15877;52.344;16.790;2023-07-22T07:14:14;100268.74;;;20.32;64.06
28701;BME280;15877;52.344;16.790;2023-07-22T07:16:46;100270.20;;;20.40;63.67
28701;BME280;15877;52.344;16.790;2023-07-22T07:19:19;100272.95;;;20.43;63.75
28701;BME280;15877;52.344;16.790;2023-07-22T07:21:52;100272.96;;;20.54;63.73
28701;BME280;15877;52.344;16.790;2023-07-22T07:24:24;100274.08;;;20.55;63.06
28701;BME280;15877;52.344;16.790;2023-07-22T07:26:58;100276.13;;;20.50;62.97
28701;BME280;15877;52.344;16.790;2023-07-22T07:29:30;100277.64;;;20.54;62.87
28701;BME280;15877;52.344;16.790;2023-07-22T07:32:24;100278.60;;;20.73;61.77
28701;BME280;15877;52.344;16.790;2023-07-22T07:34:56;100286.70;;;20.61;61.84
28701;BME280;15877;52.344;16.790;2023-07-22T07:37:28;100279.58;;;20.50;61.79
28701;BME280;15877;52.344;16.790;2023-07-22T07:40:00;100287.05;;;20.59;61.49
28701;BME280;15877;52.344;16.790;2023-07-22T07:42:33;100282.17;;;20.77;61.73
28701;BME280;15877;52.344;16.790;2023-07-22T07:45:07;100287.17;;;20.68;62.30
28701;BME280;15877;52.344;16.790;2023-07-22T07:47:39;100294.30;;;20.74;61.75
28701;BME280;15877;52.344;16.790;2023-07-22T07:50:12;100296.44;;;20.88;61.31
28701;BME280;15877;52.344;16.790;2023-07-22T07:52:44;100298.60;;;20.96;60.80
28701;BME280;15877;52.344;16.790;2023-07-22T07:55:16;100295.94;;;21.00;60.85
28701;BME280;15877;52.344;16.790;2023-07-22T07:57:50;100296.67;;;20.88;60.04
28701;BME280;15877;52.344;16.790;2023-07-22T08:00:23;100306.42;;;20.81;59.58
28701;BME280;15877;52.344;16.790;2023-07-22T08:02:55;100311.30;;;20.87;59.12
28701;BME280;15877;52.344;16.790;2023-07-22T08:05:28;100313.68;;;20.89;59.12
28701;BME280;15877;52.344;16.790;2023-07-22T08:08:01;100312.87;;;20.89;58.71
28701;BME280;15877;52.344;16.790;2023-07-22T08:10:33;100313.98;;;20.89;59.24
28701;BME280;15877;52.344;16.790;2023-07-22T08:13:05;100317.97;;;21.00;59.48
28701;BME280;15877;52.344;16.790;2023-07-22T08:15:38;100322.10;;;21.10;58.89
28701;BME280;15877;52.344;16.790;2023-07-22T08:18:10;100327.02;;;21.28;58.06
28701;BME280;15877;52.344;16.790;2023-07-22T08:20:42;100325.63;;;21.32;57.76
28701;BME280;15877;52.344;16.790;2023-07-22T08:23:15;100334.11;;;21.31;56.88
28701;BME280;15877;52.344;16.790;2023-07-22T08:25:47;100334.89;;;21.37;56.51
28701;BME280;15877;52.344;16.790;2023-07-22T08:28:20;100337.73;;;21.53;56.72
28701;BME280;15877;52.344;16.790;2023-07-22T08:30:55;100344.52;;;21.55;56.53
28701;BME280;15877;52.344;16.790;2023-07-22T08:33:46;100344.15;;;21.44;55.88
28701;BME280;15877;52.344;16.790;2023-07-22T08:36:19;100344.27;;;21.46;55.65
28701;BME280;15877;52.344;16.790;2023-07-22T08:38:51;100344.61;;;21.52;55.72
28701;BME280;15877;52.344;16.790;2023-07-22T08:41:24;100349.84;;;21.69;54.96
28701;BME280;15877;52.344;16.790;2023-07-22T08:43:58;100354.20;;;21.72;53.89
28701;BME280;15877;52.344;16.790;2023-07-22T08:46:30;100349.51;;;21.70;53.78
28701;BME280;15877;52.344;16.790;2023-07-22T08:49:05;100351.31;;;21.83;53.31
28701;BME280;15877;52.344;16.790;2023-07-22T08:51:40;100346.73;;;21.72;53.09
28701;BME280;15877;52.344;16.790;2023-07-22T08:54:13;100360.71;;;21.54;53.24
28701;BME280;15877;52.344;16.790;2023-07-22T08:56:45;100358.74;;;21.59;53.53
28701;BME280;15877;52.344;16.790;2023-07-22T08:59:18;100358.19;;;21.76;53.64
28701;BME280;15877;52.344;16.790;2023-07-22T09:01:51;100357.84;;;21.80;53.09
28701;BME280;15877;52.344;16.790;2023-07-22T09:04:25;100365.45;;;21.73;51.88
28701;BME280;15877;52.344;16.790;2023-07-22T09:06:58;100358.02;;;21.83;51.91
28701;BME280;15877;52.344;16.790;2023-07-22T09:09:31;100362.70;;;21.86;51.74
28701;BME280;15877;52.344;16.790;2023-07-22T09:12:04;100364.80;;;21.87;51.71
28701;BME280;15877;52.344;16.790;2023-07-22T09:14:40;100366.36;;;21.98;51.40
28701;BME280;15877;52.344;16.790;2023-07-22T09:17:12;100367.02;;;22.11;51.38
28701;BME280;15877;52.344;16.790;2023-07-22T09:19:44;100364.69;;;21.91;52.21
28701;BME280;15877;52.344;16.790;2023-07-22T09:22:17;100368.68;;;21.80;52.17
28701;BME280;15877;52.344;16.790;2023-07-22T09:24:49;100374.65;;;21.83;51.87
28701;BME280;15877;52.344;16.790;2023-07-22T09:27:40;100374.44;;;21.75;51.89
28701;BME280;15877;52.344;16.790;2023-07-22T09:30:24;100375.61;;;21.84;51.51
28701;BME280;15877;52.344;16.790;2023-07-22T09:32:57;100376.93;;;22.18;50.91
28701;BME280;15877;52.344;16.790;2023-07-22T09:35:31;100374.46;;;22.31;50.29
28701;BME280;15877;52.344;16.790;2023-07-22T09:38:16;100369.10;;;22.29;50.08
28701;BME280;15877;52.344;16.790;2023-07-22T09:40:54;100377.93;;;22.37;49.51
28701;BME280;15877;52.344;16.790;2023-07-22T09:43:26;100370.44;;;22.46;48.73
28701;BME280;15877;52.344;16.790;2023-07-22T09:46:07;100372.73;;;22.48;48.43
28701;BME280;15877;52.344;16.790;2023-07-22T09:48:56;100368.21;;;22.53;47.94
28701;BME280;15877;52.344;16.790;2023-07-22T09:51:34;100373.65;;;22.73;47.06
28701;BME280;15877;52.344;16.790;2023-07-22T09:54:22;100369.46;;;22.73;47.57
28701;BME280;15877;52.344;16.790;2023-07-22T09:56:55;100378.25;;;22.87;46.29
28701;BME280;15877;52.344;16.790;2023-07-22T09:59:30;100380.81;;;22.71;45.93
28701;BME280;15877;52.344;16.790;2023-07-22T10:02:03;100376.59;;;22.58;46.36
28701;BME280;15877;52.344;16.790;2023-07-22T10:04:37;100379.56;;;22.52;46.46
28701;BME280;15877;52.344;16.790;2023-07-22T10:07:09;100389.45;;;22.75;42.83
28701;BME280;15877;52.344;16.790;2023-07-22T10:09:42;100378.63;;;22.85;41.69
28701;BME280;15877;52.344;16.790;2023-07-22T10:12:15;100388.80;;;22.95;42.09
28701;BME280;15877;52.344;16.790;2023-07-22T10:14:48;100368.09;;;22.81;42.98
28701;BME280;15877;52.344;16.790;2023-07-22T10:17:20;100381.32;;;23.09;43.76
28701;BME280;15877;52.344;16.790;2023-07-22T10:19:53;100380.13;;;23.31;43.37
28701;BME280;15877;52.344;16.790;2023-07-22T10:22:27;100378.02;;;23.22;43.09
28701;BME280;15877;52.344;16.790;2023-07-22T10:25:01;100385.48;;;23.17;42.60
28701;BME280;15877;52.344;16.790;2023-07-22T10:27:34;100383.10;;;23.45;42.92
28701;BME280;15877;52.344;16.790;2023-07-22T10:30:08;100372.52;;;23.41;42.78
28701;BME280;15877;52.344;16.790;2023-07-22T10:32:41;100384.02;;;23.61;42.78
28701;BME280;15877;52.344;16.790;2023-07-22T10:35:34;100389.00;;;23.80;40.97
28701;BME280;15877;52.344;16.790;2023-07-22T10:38:11;100369.30;;;23.87;40.77
28701;BME280;15877;52.344;16.790;2023-07-22T10:40:49;100395.70;;;24.06;40.77
28701;BME280;15877;52.344;16.790;2023-07-22T10:43:27;100396.96;;;24.02;40.90
28701;BME280;15877;52.344;16.790;2023-07-22T10:46:07;100398.64;;;23.85;41.08
28701;BME280;15877;52.344;16.790;2023-07-22T10:48:41;100398.21;;;23.76;41.41
28701;BME280;15877;52.344;16.790;2023-07-22T10:51:15;100394.54;;;23.57;41.84
28701;BME280;15877;52.344;16.790;2023-07-22T10:53:47;100400.83;;;23.65;42.23
28701;BME280;15877;52.344;16.790;2023-07-22T10:56:22;100400.02;;;23.80;42.46
28701;BME280;15877;52.344;16.790;2023-07-22T10:59:00;100393.65;;;24.12;42.27
28701;BME280;15877;52.344;16.790;2023-07-22T11:01:35;100389.17;;;24.17;40.59
28701;BME280;15877;52.344;16.790;2023-07-22T11:04:21;100391.83;;;24.13;40.65
28701;BME280;15877;52.344;16.790;2023-07-22T11:07:09;100387.96;;;24.31;39.46
28701;BME280;15877;52.344;16.790;2023-07-22T11:09:42;100384.95;;;24.31;39.26
28701;BME280;15877;52.344;16.790;2023-07-22T11:12:18;100395.66;;;24.50;39.64
28701;BME280;15877;52.344;16.790;2023-07-22T11:14:52;100395.38;;;24.30;39.71
28701;BME280;15877;52.344;16.790;2023-07-22T11:17:32;100394.09;;;24.25;40.12
28701;BME280;15877;52.344;16.790;2023-07-22T11:20:04;100397.42;;;24.10;40.58
28701;BME280;15877;52.344;16.790;2023-07-22T11:22:36;100407.05;;;23.95;40.41
28701;BME280;15877;52.344;16.790;2023-07-22T11:25:18;100397.49;;;24.13;40.94
28701;BME280;15877;52.344;16.790;2023-07-22T11:27:50;100393.23;;;24.17;40.81
28701;BME280;15877;52.344;16.790;2023-07-22T11:30:24;100403.58;;;23.98;40.77
28701;BME280;15877;52.344;16.790;2023-07-22T11:32:58;100397.46;;;23.66;40.16
28701;BME280;15877;52.344;16.790;2023-07-22T11:35:31;100401.27;;;23.54;40.42
28701;BME280;15877;52.344;16.790;2023-07-22T11:38:04;100387.80;;;23.64;40.21
28701;BME280;15877;52.344;16.790;2023-07-22T11:40:36;100391.95;;;23.79;40.41
28701;BME280;15877;52.344;16.790;2023-07-22T11:43:09;100389.88;;;23.68;40.53
28701;BME280;15877;52.344;16.790;2023-07-22T11:45:41;100377.05;;;23.64;40.40
28701;BME280;15877;52.344;16.790;2023-07-22T11:48:13;100391.80;;;23.81;40.42
28701;BME280;15877;52.344;16.790;2023-07-22T11:50:45;100386.05;;;23.94;39.42
28701;BME280;15877;52.344;16.790;2023-07-22T11:53:18;100394.03;;;23.84;39.39
28701;BME280;15877;52.344;16.790;2023-07-22T11:55:52;100387.33;;;23.93;39.37
28701;BME280;15877;52.344;16.790;2023-07-22T11:58:28;100377.03;;;24.11;39.42
28701;BME280;15877;52.344;16.790;2023-07-22T12:01:09;100375.94;;;24.32;38.83
28701;BME280;15877;52.344;16.790;2023-07-22T12:03:42;100385.10;;;24.45;38.45
28701;BME280;15877;52.344;16.790;2023-07-22T12:06:15;100385.56;;;24.55;38.12
28701;BME280;15877;52.344;16.790;2023-07-22T12:08:49;100387.02;;;24.73;38.22
28701;BME280;15877;52.344;16.790;2023-07-22T12:11:23;100382.35;;;24.90;38.10
28701;BME280;15877;52.344;16.790;2023-07-22T12:14:08;100379.58;;;25.24;38.01
28701;BME280;15877;52.344;16.790;2023-07-22T12:16:45;100391.23;;;25.34;37.13
28701;BME280;15877;52.344;16.790;2023-07-22T12:19:18;100388.83;;;25.39;37.04
28701;BME280;15877;52.344;16.790;2023-07-22T12:21:50;100387.72;;;25.19;36.55
28701;BME280;15877;52.344;16.790;2023-07-22T12:24:22;100387.85;;;25.10;36.84
28701;BME280;15877;52.344;16.790;2023-07-22T12:26:54;100389.35;;;25.23;36.44
28701;BME280;15877;52.344;16.790;2023-07-22T12:29:27;100389.08;;;25.37;36.76
28701;BME280;15877;52.344;16.790;2023-07-22T12:31:59;100374.23;;;25.52;36.68
28701;BME280;15877;52.344;16.790;2023-07-22T12:34:31;100389.32;;;25.59;36.46
28701;BME280;15877;52.344;16.790;2023-07-22T12:37:05;100392.59;;;25.28;35.88
28701;BME280;15877;52.344;16.790;2023-07-22T12:39:39;100394.08;;;25.21;35.77
28701;BME280;15877;52.344;16.790;2023-07-22T12:42:12;100391.09;;;25.31;35.77
28701;BME280;15877;52.344;16.790;2023-07-22T12:44:44;100391.36;;;25.43;36.11
28701;BME280;15877;52.344;16.790;2023-07-22T12:47:17;100386.32;;;25.58;35.84
28701;BME280;15877;52.344;16.790;2023-07-22T12:49:49;100391.23;;;25.69;35.83
28701;BME280;15877;52.344;16.790;2023-07-22T12:52:22;100376.41;;;25.65;36.02
28701;BME280;15877;52.344;16.790;2023-07-22T12:54:54;100387.44;;;26.03;35.94
28701;BME280;15877;52.344;16.790;2023-07-22T12:57:26;100384.56;;;26.14;35.69
28701;BME280;15877;52.344;16.790;2023-07-22T12:59:58;100387.14;;;26.20;35.38
28701;BME280;15877;52.344;16.790;2023-07-22T13:02:31;100382.85;;;26.29;35.63
28701;BME280;15877;52.344;16.790;2023-07-22T13:05:04;100385.11;;;26.35;34.74
28701;BME280;15877;52.344;16.790;2023-07-22T13:07:37;100389.06;;;26.10;34.81
28701;BME280;15877;52.344;16.790;2023-07-22T13:10:10;100391.84;;;25.79;35.37
28701;BME280;15877;52.344;16.790;2023-07-22T13:12:46;100383.31;;;25.45;35.62
28701;BME280;15877;52.344;16.790;2023-07-22T13:15:18;100388.09;;;25.53;36.14